createdAt,value
2019-03-03T00:01:34.202Z,100929.69
2019-03-03T00:04:05.925Z,100941.75
2019-03-03T00:06:37.264Z,100956.00
2019-03-03T00:09:09.113Z,100960.25
2019-03-03T00:11:42.000Z,100974.41
2019-03-03T00:14:13.361Z,100972.06
2019-03-03T00:16:44.652Z,100998.88
2019-03-03T00:19:15.920Z,101005.71
2019-03-03T00:21:49.372Z,101010.68
2019-03-03T00:24:21.028Z,101008.22
2019-03-03T00:26:52.540Z,101003.91
2019-03-03T00:29:24.154Z,101004.33
2019-03-03T00:31:58.249Z,101004.22
2019-03-03T00:34:29.906Z,100999.59
2019-03-03T00:37:25.830Z,101002.44
2019-03-03T00:40:25.340Z,100999.75
2019-03-03T00:43:21.054Z,101000.61
2019-03-03T00:46:23.564Z,100997.94
2019-03-03T00:49:19.690Z,101009.81
2019-03-03T00:52:06.448Z,101023.55
2019-03-03T00:55:02.811Z,101026.21
2019-03-03T00:57:59.447Z,101019.41
2019-03-03T01:00:51.048Z,101014.81
2019-03-03T01:03:33.825Z,101000.56
2019-03-03T01:06:27.615Z,100960.28
2019-03-03T01:09:17.805Z,100988.08
2019-03-03T01:12:18.018Z,100979.02
2019-03-03T01:14:55.906Z,100992.91
2019-03-03T01:17:36.435Z,101012.02
2019-03-03T01:20:23.421Z,101029.06
2019-03-03T01:23:14.454Z,101111.23
2019-03-03T01:25:45.732Z,101148.72
2019-03-03T01:28:18.220Z,101174.27
2019-03-03T01:30:49.604Z,101186.54
2019-03-03T01:33:20.854Z,101247.36
2019-03-03T01:35:52.521Z,101270.71
2019-03-03T01:38:23.756Z,101393.30
2019-03-03T01:40:55.918Z,101405.25
2019-03-03T01:43:27.513Z,101377.48
2019-03-03T01:45:58.866Z,101293.98
2019-03-03T01:48:30.100Z,101281.14
2019-03-03T01:51:01.721Z,101288.13
2019-03-03T01:53:32.909Z,101264.03
2019-03-03T01:56:04.437Z,101239.98
2019-03-03T01:58:35.677Z,101214.22
2019-03-03T02:01:06.990Z,101169.81
2019-03-03T02:03:38.481Z,101118.94
2019-03-03T02:06:09.850Z,101081.86
2019-03-03T02:08:41.175Z,101054.11
2019-03-03T02:11:13.062Z,101038.68
2019-03-03T02:13:44.414Z,101024.83
2019-03-03T02:16:15.719Z,101017.31
2019-03-03T02:18:47.382Z,101006.97
2019-03-03T02:21:19.114Z,100985.71
2019-03-03T02:23:52.369Z,100941.52
2019-03-03T02:26:24.229Z,100931.18
2019-03-03T02:28:55.410Z,100924.30
2019-03-03T02:31:27.573Z,100908.93
2019-03-03T02:33:59.956Z,100902.24
2019-03-03T02:36:31.371Z,100866.21
2019-03-03T02:39:02.611Z,100863.47
2019-03-03T02:41:35.495Z,100838.58
2019-03-03T02:44:06.783Z,100830.97
2019-03-03T02:46:38.005Z,100831.90
2019-03-03T02:49:09.274Z,100832.31
2019-03-03T02:51:40.485Z,100824.45
2019-03-03T02:54:12.678Z,100802.08
2019-03-03T02:56:44.483Z,100817.02
2019-03-03T02:59:15.664Z,100809.52
2019-03-03T03:01:52.178Z,100928.09
2019-03-03T03:04:23.675Z,100921.03
2019-03-03T03:07:03.543Z,100914.44
2019-03-03T03:09:48.592Z,100906.19
2019-03-03T03:12:32.703Z,100909.51
2019-03-03T03:15:21.164Z,100911.67
2019-03-03T03:18:17.846Z,100887.06
2019-03-03T03:20:58.440Z,100900.42
2019-03-03T03:23:51.798Z,100909.72
2019-03-03T03:26:32.141Z,100900.54
2019-03-03T03:29:25.033Z,100889.02
2019-03-03T03:32:24.753Z,100885.70
2019-03-03T03:35:04.172Z,100870.64
2019-03-03T03:38:09.530Z,100858.54
2019-03-03T03:41:00.568Z,100853.39
2019-03-03T03:43:50.712Z,100844.86
2019-03-03T03:46:40.154Z,100824.80
2019-03-03T03:49:30.021Z,100825.52
2019-03-03T03:52:21.316Z,100818.24
2019-03-03T03:55:14.554Z,100831.17
2019-03-03T03:58:02.381Z,100827.16
2019-03-03T04:00:51.135Z,100808.44
2019-03-03T04:03:40.175Z,100817.17
2019-03-03T04:06:42.964Z,100807.02
2019-03-03T04:09:34.987Z,100814.23
2019-03-03T04:12:14.912Z,100807.07
2019-03-03T04:15:08.803Z,100819.90
2019-03-03T04:17:58.018Z,100829.98
2019-03-03T04:20:52.408Z,100812.05
2019-03-03T04:23:41.847Z,100801.15
2019-03-03T04:26:38.668Z,100811.70
2019-03-03T04:29:27.650Z,100789.12
2019-03-03T04:32:29.971Z,100815.89
2019-03-03T04:35:11.718Z,100819.86
2019-03-03T04:38:01.853Z,100841.28
2019-03-03T04:40:41.758Z,100844.44
2019-03-03T04:43:19.509Z,100877.44
2019-03-03T04:46:09.579Z,100876.81
2019-03-03T04:49:00.264Z,100860.61
2019-03-03T04:51:54.765Z,101029.82
2019-03-03T04:54:57.252Z,101300.51
2019-03-03T04:57:47.990Z,101427.86
2019-03-03T05:00:36.515Z,101353.23
2019-03-03T05:03:26.661Z,101355.76
2019-03-03T05:06:04.333Z,101956.85
2019-03-03T05:08:49.749Z,101981.34
2019-03-03T05:12:29.471Z,101942.98
2019-03-03T05:15:07.958Z,100589.08
2019-03-03T05:17:47.658Z,100614.94
2019-03-03T05:20:19.855Z,100637.79
2019-03-03T05:22:51.099Z,100663.55
2019-03-03T05:25:22.996Z,100698.52
2019-03-03T05:27:55.433Z,100789.37
2019-03-03T05:30:26.749Z,100805.16
2019-03-03T05:32:58.341Z,100910.70
2019-03-03T05:35:32.283Z,101002.51
2019-03-03T05:38:04.005Z,101368.22
2019-03-03T05:40:35.184Z,102134.84
2019-03-03T05:43:06.826Z,102255.48
2019-03-03T05:45:41.656Z,102306.70
2019-03-03T05:48:13.095Z,102643.05
2019-03-03T05:50:44.742Z,102737.02
2019-03-03T05:53:16.003Z,102424.38
2019-03-03T05:55:47.338Z,102533.49
2019-03-03T05:58:18.855Z,102638.16
2019-03-03T06:00:50.067Z,102712.08
2019-03-03T06:03:21.203Z,102766.86
2019-03-03T06:05:53.062Z,102880.03
2019-03-03T06:08:24.262Z,102959.34
2019-03-03T06:10:55.935Z,103044.01
2019-03-03T06:13:27.109Z,103149.61
2019-03-03T06:15:58.551Z,103258.33
2019-03-03T06:18:29.746Z,103112.59
2019-03-03T06:21:01.083Z,103454.38
2019-03-03T06:23:32.322Z,103704.84
2019-03-03T06:26:03.607Z,103842.56
2019-03-03T06:28:35.467Z,103893.38
2019-03-03T06:31:06.728Z,103327.83
2019-03-03T06:33:37.998Z,103168.73
2019-03-03T06:36:09.304Z,103279.27
2019-03-03T06:38:40.594Z,103471.79
2019-03-03T06:41:12.355Z,103584.10
2019-03-03T06:43:43.704Z,103721.37
2019-03-03T06:46:14.905Z,103806.08
2019-03-03T06:48:46.177Z,103894.73
2019-03-03T06:51:17.359Z,103955.84
2019-03-03T06:53:49.745Z,104171.16
2019-03-03T06:56:21.321Z,104258.11
2019-03-03T06:58:52.964Z,104629.50
2019-03-03T07:01:24.145Z,105360.26
2019-03-03T07:03:57.102Z,105303.18
2019-03-03T07:06:28.484Z,105296.58
2019-03-03T07:08:59.732Z,105548.14
2019-03-03T07:11:33.630Z,105398.34
2019-03-03T07:14:04.936Z,105638.76
2019-03-03T07:16:36.235Z,107055.19
2019-03-03T07:19:07.576Z,109140.83
2019-03-03T07:21:38.752Z,108234.23
2019-03-03T07:24:10.987Z,108822.66
2019-03-03T07:26:42.142Z,109365.27
2019-03-03T07:29:13.407Z,109797.27
2019-03-03T07:31:44.981Z,111337.61
2019-03-03T07:34:16.299Z,111724.95
2019-03-03T07:36:47.720Z,111695.47
2019-03-03T07:39:19.911Z,112022.13
2019-03-03T07:41:51.251Z,111815.91
2019-03-03T07:44:22.848Z,112435.83
2019-03-03T07:46:54.137Z,113508.25
2019-03-03T07:49:25.983Z,114071.55
2019-03-03T07:51:57.590Z,114189.84
2019-03-03T07:54:29.371Z,114823.23
2019-03-03T07:57:01.127Z,115187.89
2019-03-03T07:59:32.889Z,115124.83
2019-03-03T08:02:04.555Z,115104.00
2019-03-03T08:04:38.648Z,115317.63
2019-03-03T08:07:10.302Z,115579.84
2019-03-03T08:09:41.844Z,115848.27
2019-03-03T08:12:14.548Z,116134.00
2019-03-03T08:14:46.493Z,116110.22
2019-03-03T08:17:18.165Z,116373.30
2019-03-03T08:19:49.612Z,116199.16
2019-03-03T08:22:21.160Z,116432.11
2019-03-03T08:24:52.609Z,116369.64
2019-03-03T08:27:24.207Z,116292.45
2019-03-03T08:29:56.649Z,116286.11
2019-03-03T08:32:28.502Z,111776.81
2019-03-03T08:34:59.823Z,111500.23
2019-03-03T08:37:31.181Z,111256.98
2019-03-03T08:40:02.664Z,111132.52
2019-03-03T08:42:41.859Z,111018.74
2019-03-03T08:45:30.718Z,110820.92
2019-03-03T08:48:26.747Z,110773.44
2019-03-03T08:51:13.977Z,109896.89
2019-03-03T08:54:27.933Z,109565.63
2019-03-03T08:57:18.056Z,109260.14
2019-03-03T09:00:18.250Z,108974.70
2019-03-03T09:02:57.782Z,108656.30
2019-03-03T09:05:41.325Z,108267.87
2019-03-03T09:12:20.248Z,107441.80
2019-03-03T09:15:16.502Z,107070.62
2019-03-03T09:18:18.051Z,106828.97
2019-03-03T09:20:59.573Z,106514.94
2019-03-03T09:23:53.258Z,105850.19
2019-03-03T09:26:42.223Z,105658.77
2019-03-03T09:29:30.257Z,105361.88
2019-03-03T09:32:30.264Z,105009.84
2019-03-03T09:35:26.219Z,104809.75
2019-03-03T09:38:10.772Z,104915.80
2019-03-03T09:41:11.425Z,104767.61
2019-03-03T09:43:58.599Z,104745.23
2019-03-03T09:46:54.943Z,104544.41
2019-03-03T09:49:45.057Z,104414.23
2019-03-03T10:05:03.833Z,103332.13
2019-03-03T10:07:55.825Z,103289.78
2019-03-03T10:10:44.927Z,103163.02
2019-03-03T10:13:44.278Z,102906.72
2019-03-03T10:16:38.013Z,102625.61
2019-03-03T10:19:43.934Z,102294.55
2019-03-03T10:22:33.422Z,101897.47
2019-03-03T10:25:33.844Z,101693.08
2019-03-03T10:28:45.624Z,101652.19
2019-03-03T10:31:58.313Z,101307.75
2019-03-03T10:35:01.098Z,100955.31
2019-03-03T10:37:47.529Z,100655.44
2019-03-03T10:40:59.747Z,100494.37
2019-03-03T10:44:11.130Z,100404.14
2019-03-03T10:47:04.737Z,100248.20
2019-03-03T10:51:25.829Z,100061.48
2019-03-03T10:54:07.593Z,99900.56
2019-03-03T10:57:13.259Z,99527.63
2019-03-03T11:00:06.202Z,99373.01
2019-03-03T11:03:04.452Z,99118.13
2019-03-03T11:06:13.611Z,98946.80
2019-03-03T11:12:36.020Z,98700.46
2019-03-03T11:16:04.636Z,98731.15
2019-03-03T11:19:26.841Z,98590.80
2019-03-03T11:22:34.267Z,98685.99
2019-03-03T11:29:17.182Z,98947.69
2019-03-03T11:32:42.235Z,99047.97
2019-03-03T11:46:17.304Z,99663.83
2019-03-03T11:53:16.241Z,99707.98
2019-03-03T11:56:12.876Z,99755.50
2019-03-03T11:59:38.825Z,99764.40
2019-03-03T12:02:39.461Z,99790.98
2019-03-03T12:05:31.381Z,99740.30
2019-03-03T12:08:22.581Z,99727.69
2019-03-03T12:11:12.344Z,99758.56
2019-03-03T12:14:02.532Z,99771.30
2019-03-03T12:16:48.282Z,99788.30
2019-03-03T12:19:44.749Z,99776.94
2019-03-03T12:22:34.125Z,99780.95
2019-03-03T12:25:41.657Z,99783.05
2019-03-03T12:28:27.588Z,99817.46
2019-03-03T12:31:05.533Z,99844.92
2019-03-03T12:33:54.836Z,99839.07
2019-03-03T12:36:48.061Z,99863.91
2019-03-03T12:39:41.167Z,99889.80
2019-03-03T12:42:30.755Z,99888.51
2019-03-03T12:45:20.953Z,99908.63
2019-03-03T12:48:23.922Z,99905.36
2019-03-03T12:51:04.600Z,99908.03
2019-03-03T12:53:51.370Z,99908.14
2019-03-03T12:56:53.655Z,99902.42
2019-03-03T12:59:30.347Z,99892.32
2019-03-03T13:02:23.743Z,99885.64
2019-03-03T13:05:23.014Z,99824.84
2019-03-03T13:08:16.311Z,99733.89
2019-03-03T13:11:09.533Z,99702.83
2019-03-03T13:13:58.395Z,99623.05
2019-03-03T13:17:01.000Z,99543.86
2019-03-03T13:19:57.542Z,99440.76
2019-03-03T13:22:50.843Z,99445.45
2019-03-03T13:25:40.148Z,99384.65
2019-03-03T13:28:46.966Z,99347.59
2019-03-03T13:31:33.776Z,99308.72
2019-03-03T13:34:22.257Z,99245.80
2019-03-03T13:37:17.052Z,99207.82
2019-03-03T13:40:06.981Z,99166.02
2019-03-03T13:42:58.391Z,99150.29
2019-03-03T13:45:34.138Z,99156.81
2019-03-03T13:48:05.800Z,99144.80
2019-03-03T13:50:37.884Z,99203.73
2019-03-03T13:53:09.390Z,99220.67
2019-03-03T13:55:42.063Z,99238.19
2019-03-03T13:58:13.883Z,99205.95
2019-03-03T14:00:45.280Z,99193.55
2019-03-03T14:03:17.073Z,99147.59
2019-03-03T14:05:48.342Z,99132.33
2019-03-03T14:08:20.120Z,99098.39
2019-03-03T14:10:51.313Z,99061.64
2019-03-03T14:13:23.017Z,99025.48
2019-03-03T14:15:54.648Z,99009.39
2019-03-03T14:18:25.968Z,99017.45
2019-03-03T14:20:57.298Z,98990.69
2019-03-03T14:23:28.899Z,98971.27
2019-03-03T14:26:00.165Z,99000.44
2019-03-03T14:28:31.454Z,99000.14
2019-03-03T14:31:03.100Z,99006.74
2019-03-03T14:33:34.567Z,98996.92
2019-03-03T14:36:06.648Z,99010.67
2019-03-03T14:38:38.856Z,98976.97
2019-03-03T14:41:11.606Z,98934.33
2019-03-03T14:43:43.023Z,98907.89
2019-03-03T14:46:14.412Z,98897.03
2019-03-03T14:48:46.020Z,98876.00
2019-03-03T14:51:24.836Z,98847.97
2019-03-03T14:53:56.254Z,98820.88
2019-03-03T14:56:27.577Z,98833.63
2019-03-03T14:58:59.095Z,98814.23
2019-03-03T15:01:30.934Z,98799.48
2019-03-03T15:04:02.467Z,98760.34
2019-03-03T15:06:34.207Z,98735.63
2019-03-03T15:09:13.283Z,98706.25
2019-03-03T15:11:45.073Z,98663.67
2019-03-03T15:14:16.526Z,98622.31
2019-03-03T15:16:48.317Z,98579.61
2019-03-03T15:19:19.726Z,98457.48
2019-03-03T15:21:50.992Z,98445.22
2019-03-03T15:24:22.660Z,98393.20
2019-03-03T15:26:54.114Z,98379.84
2019-03-03T15:29:25.437Z,98355.30
2019-03-03T15:31:56.709Z,98338.05
2019-03-03T15:34:28.117Z,98302.52
2019-03-03T15:37:01.079Z,98269.12
2019-03-03T15:39:33.694Z,98224.37
2019-03-03T15:42:05.566Z,98193.75
2019-03-03T15:44:37.789Z,98160.19
2019-03-03T15:47:09.110Z,98135.38
2019-03-03T15:49:40.814Z,98104.78
2019-03-03T15:52:12.102Z,98064.92
2019-03-03T15:54:43.392Z,97990.30
2019-03-03T15:57:15.295Z,97928.22
2019-03-03T15:59:46.460Z,97884.50
2019-03-03T16:02:18.076Z,97861.92
2019-03-03T16:04:49.363Z,97834.22
2019-03-03T16:07:21.023Z,97784.34
2019-03-03T16:09:52.621Z,97904.30
2019-03-03T16:12:23.866Z,97862.66
2019-03-03T16:14:55.067Z,97828.56
2019-03-03T16:17:26.304Z,97829.93
2019-03-03T16:19:57.658Z,97782.57
2019-03-03T16:22:28.952Z,97722.73
2019-03-03T16:25:00.577Z,97740.20
2019-03-03T16:27:31.809Z,97692.08
2019-03-03T16:30:03.034Z,97817.66
2019-03-03T16:32:36.095Z,97782.64
2019-03-03T16:35:07.855Z,97731.65
2019-03-03T16:37:39.475Z,97675.83
2019-03-03T16:40:13.672Z,97559.17
2019-03-03T16:42:45.283Z,97505.79
2019-03-03T16:45:16.872Z,97465.80
2019-03-03T16:47:48.211Z,97423.41
2019-03-03T16:50:19.604Z,97342.81
2019-03-03T16:52:50.970Z,97305.30
2019-03-03T16:55:22.509Z,97274.42
2019-03-03T16:57:53.849Z,97239.59
2019-03-03T17:00:25.303Z,97208.70
2019-03-03T17:02:56.956Z,97171.30
2019-03-03T17:05:28.211Z,96839.91
2019-03-03T17:08:00.377Z,96731.01
2019-03-03T17:10:31.815Z,96692.27
2019-03-03T17:13:03.322Z,96672.73
2019-03-03T17:15:34.632Z,96627.97
2019-03-03T17:18:06.049Z,96581.55
2019-03-03T17:20:37.247Z,96541.81
2019-03-03T17:23:08.982Z,96469.50
2019-03-03T17:25:40.266Z,96516.43
2019-03-03T17:28:11.600Z,96484.03
2019-03-03T17:30:43.128Z,96512.77
2019-03-03T17:33:15.354Z,96496.73
2019-03-03T17:35:46.564Z,96699.63
2019-03-03T17:38:18.272Z,97430.45
2019-03-03T17:40:58.680Z,97503.64
2019-03-03T17:43:30.189Z,97428.09
2019-03-03T17:46:01.643Z,96947.91
2019-03-03T17:48:33.907Z,96957.45
2019-03-03T17:51:05.206Z,97079.82
2019-03-03T17:53:36.663Z,97154.00
2019-03-03T17:56:07.971Z,97190.47
2019-03-03T17:58:39.431Z,97210.70
2019-03-03T18:01:10.908Z,97311.05
2019-03-03T18:03:42.372Z,97799.48
2019-03-03T18:06:14.101Z,98142.20
2019-03-03T18:08:45.547Z,98321.33
2019-03-03T18:11:16.946Z,98495.64
2019-03-03T18:13:49.735Z,98694.06
2019-03-03T18:16:21.108Z,98962.09
2019-03-03T18:18:52.890Z,99237.52
2019-03-03T18:21:25.155Z,99462.28
2019-03-03T18:23:56.721Z,99823.87
2019-03-03T18:26:28.189Z,100074.50
2019-03-03T18:28:59.793Z,100599.13
2019-03-03T18:31:31.183Z,101227.50
2019-03-03T18:34:02.563Z,101530.40
2019-03-03T18:36:33.994Z,101670.61
2019-03-03T18:39:07.742Z,101808.53
2019-03-03T18:41:39.683Z,102012.77
2019-03-03T18:44:11.204Z,102479.38
2019-03-03T18:46:42.651Z,102573.43
2019-03-03T18:49:13.971Z,102621.95
2019-03-03T18:51:46.091Z,102635.45
2019-03-03T18:54:17.487Z,102934.06
2019-03-03T18:56:49.341Z,103019.70
2019-03-03T18:59:21.485Z,103081.63
2019-03-03T19:01:55.505Z,103136.95
2019-03-03T19:04:26.947Z,103258.23
2019-03-03T19:06:58.595Z,103334.03
2019-03-03T19:09:30.341Z,103456.22
2019-03-03T19:12:02.560Z,103627.94
2019-03-03T19:14:35.988Z,103803.21
2019-03-03T19:17:07.830Z,103974.03
2019-03-03T19:19:39.525Z,102891.19
2019-03-03T19:22:11.280Z,106471.52
2019-03-03T19:24:44.350Z,106527.30
2019-03-03T19:27:16.681Z,106518.50
2019-03-03T19:29:50.024Z,106515.13
2019-03-03T19:32:22.463Z,106575.20
2019-03-03T19:34:55.609Z,106684.83
2019-03-03T19:37:27.247Z,106746.20
2019-03-03T19:39:59.210Z,107135.16
2019-03-03T19:42:30.943Z,107282.51
2019-03-03T19:45:02.473Z,107471.93
2019-03-03T19:47:35.189Z,107646.61
2019-03-03T19:50:07.979Z,108016.05
2019-03-03T19:52:40.338Z,109937.69
2019-03-03T19:55:12.183Z,110421.52
2019-03-03T19:57:44.004Z,110800.94
2019-03-03T20:00:21.416Z,111714.48
2019-03-03T20:02:53.205Z,111958.33
2019-03-03T20:05:24.710Z,111926.69
2019-03-03T20:07:56.472Z,112236.98
2019-03-03T20:10:28.818Z,112379.03
2019-03-03T20:13:00.159Z,112638.30
2019-03-03T20:15:31.380Z,112977.30
2019-03-03T20:18:03.077Z,115575.88
2019-03-03T20:20:34.321Z,116120.78
2019-03-03T20:23:05.521Z,116642.16
2019-03-03T20:25:37.509Z,117199.36
2019-03-03T20:28:08.826Z,117738.14
2019-03-03T20:30:40.638Z,118149.22
2019-03-03T20:33:12.028Z,119292.16
2019-03-03T20:35:44.850Z,119899.00
2019-03-03T20:38:16.089Z,120281.42
2019-03-03T20:40:47.406Z,120563.16
2019-03-03T20:43:18.788Z,120968.14
2019-03-03T20:45:50.079Z,121365.84
2019-03-03T20:48:21.446Z,121731.91
2019-03-03T20:50:53.772Z,122204.98
2019-03-03T20:53:26.837Z,122266.53
2019-03-03T20:55:58.223Z,123287.71
2019-03-03T20:58:29.824Z,123581.19
2019-03-03T21:01:01.168Z,123775.25
2019-03-03T21:03:32.646Z,123978.77
2019-03-03T21:06:03.918Z,124169.59
2019-03-03T21:08:36.335Z,124469.59
2019-03-03T21:11:07.989Z,124504.19
2019-03-03T21:13:39.610Z,125366.39
2019-03-03T21:16:11.151Z,125608.86
2019-03-03T21:18:43.367Z,126039.22
2019-03-03T21:21:14.983Z,126537.88
2019-03-03T21:23:46.665Z,126738.54
2019-03-03T21:26:17.965Z,127140.44
2019-03-03T21:28:49.614Z,127390.46
2019-03-03T21:31:20.858Z,127592.05
2019-03-03T21:33:52.187Z,126866.66
2019-03-03T21:36:23.535Z,128071.16
2019-03-03T21:38:54.925Z,128783.38
2019-03-03T21:41:26.456Z,129048.70
2019-03-03T21:43:57.798Z,129145.72
2019-03-03T21:46:29.477Z,129035.81
2019-03-03T21:49:01.379Z,129122.52
2019-03-03T21:51:32.824Z,129165.34
2019-03-03T21:54:03.998Z,129228.36
2019-03-03T21:56:35.461Z,129288.13
2019-03-03T21:59:07.829Z,129486.74
2019-03-03T22:01:39.716Z,129556.75
2019-03-03T22:04:10.957Z,129624.22
2019-03-03T22:06:42.417Z,129228.14
2019-03-03T22:09:13.697Z,129924.42
2019-03-03T22:11:46.553Z,129965.45
2019-03-03T22:14:18.335Z,129989.48
2019-03-03T22:16:50.489Z,129902.66
2019-03-03T22:19:21.786Z,129918.59
2019-03-03T22:21:53.031Z,129988.05
2019-03-03T22:24:24.326Z,129992.35
2019-03-03T22:26:55.606Z,129992.53
2019-03-03T22:29:26.973Z,129836.53
2019-03-03T22:31:58.225Z,129798.59
2019-03-03T22:34:29.540Z,129661.42
2019-03-03T22:37:00.962Z,129620.48
2019-03-03T22:39:32.205Z,129609.43
2019-03-03T22:42:03.406Z,129587.31
2019-03-03T22:44:35.446Z,129871.53
2019-03-03T22:47:07.061Z,130080.25
2019-03-03T22:49:38.956Z,130171.36
2019-03-03T22:52:10.192Z,130174.06
2019-03-03T22:54:41.547Z,130149.78
2019-03-03T22:57:12.941Z,130133.86
2019-03-03T22:59:44.319Z,130176.33
2019-03-03T23:02:17.362Z,130212.62
2019-03-03T23:05:19.039Z,130272.64
2019-03-03T23:08:14.249Z,129928.58
2019-03-03T23:10:55.559Z,129858.46
2019-03-03T23:14:11.006Z,129438.30
2019-03-03T23:17:25.805Z,129533.91
2019-03-03T23:20:20.989Z,129680.66
2019-03-03T23:23:14.757Z,129699.59
2019-03-03T23:25:53.819Z,129689.77
2019-03-03T23:28:25.645Z,133054.72
2019-03-03T23:30:58.687Z,131315.06
2019-03-03T23:33:30.185Z,131224.22
2019-03-03T23:36:02.075Z,131321.11
2019-03-03T23:38:33.596Z,131495.56
2019-03-03T23:41:05.018Z,131295.92
2019-03-03T23:43:36.805Z,131383.41
2019-03-03T23:48:32.410Z,129764.80
2019-03-03T23:51:03.636Z,132696.28
2019-03-03T23:53:35.176Z,132502.89
2019-03-03T23:56:06.391Z,132470.31
2019-03-03T23:58:37.578Z,132197.28
